sensor_id;sensor_type;location;lat;lon;timestamp;pressure;altitude;pressure_sealevel;temperature;humidity
39435;BME280;30098;51.880;-0.518;2022-07-22T00:01:00;101296.81;;;24.22;43.28
39435;BME280;30098;51.880;-0.518;2022-07-22T00:03:26;101288.56;;;24.22;43.39
39435;BME280;30098;51.880;-0.518;2022-07-22T00:05:51;101285.78;;;24.22;43.39
39435;BME280;30098;51.880;-0.518;2022-07-22T00:08:17;101281.41;;;24.21;43.44
39435;BME280;30098;51.880;-0.518;2022-07-22T00:10:42;101286.94;;;24.21;43.31
39435;BME280;30098;51.880;-0.518;2022-07-22T00:13:08;101254.25;;;24.10;43.26
39435;BME280;30098;51.880;-0.518;2022-07-22T00:15:33;101275.13;;;24.20;43.48
39435;BME280;30098;51.880;-0.518;2022-07-22T00:17:59;101265.25;;;24.19;43.40
39435;BME280;30098;51.880;-0.518;2022-07-22T00:20:25;101273.84;;;24.18;43.49
39435;BME280;30098;51.880;-0.518;2022-07-22T00:22:50;101231.25;;;23.98;43.38
39435;BME280;30098;51.880;-0.518;2022-07-22T00:25:16;101258.44;;;24.17;43.56
39435;BME280;30098;51.880;-0.518;2022-07-22T00:27:41;101256.50;;;24.17;43.59
39435;BME280;30098;51.880;-0.518;2022-07-22T00:30:07;101258.44;;;24.17;43.36
39435;BME280;30098;51.880;-0.518;2022-07-22T00:32:33;101250.19;;;24.17;43.25
39435;BME280;30098;51.880;-0.518;2022-07-22T00:34:58;101249.34;;;24.16;43.24
39435;BME280;30098;51.880;-0.518;2022-07-22T00:37:24;101245.81;;;24.16;43.60
39435;BME280;30098;51.880;-0.518;2022-07-22T00:39:49;101256.03;;;24.15;43.06
39435;BME280;30098;51.880;-0.518;2022-07-22T00:42:15;101252.44;;;24.15;43.13
39435;BME280;30098;51.880;-0.518;2022-07-22T00:44:41;101246.16;;;24.14;43.49
39435;BME280;30098;51.880;-0.518;2022-07-22T00:47:06;101248.06;;;24.14;43.31
39435;BME280;30098;51.880;-0.518;2022-07-22T00:49:32;101247.28;;;24.13;43.24
39435;BME280;30098;51.880;-0.518;2022-07-22T00:51:58;101252.78;;;24.13;43.54
39435;BME280;30098;51.880;-0.518;2022-07-22T00:54:24;101248.06;;;24.14;43.44
39435;BME280;30098;51.880;-0.518;2022-07-22T00:56:49;101242.91;;;24.12;43.51
39435;BME280;30098;51.880;-0.518;2022-07-22T00:59:15;101244.03;;;24.11;43.25
39435;BME280;30098;51.880;-0.518;2022-07-22T01:01:40;101224.63;;;23.99;43.71
39435;BME280;30098;51.880;-0.518;2022-07-22T01:04:06;101244.84;;;24.12;43.34
39435;BME280;30098;51.880;-0.518;2022-07-22T01:06:31;101236.91;;;24.10;43.44
39435;BME280;30098;51.880;-0.518;2022-07-22T01:08:58;101232.06;;;24.07;43.69
39435;BME280;30098;51.880;-0.518;2022-07-22T01:11:24;101224.28;;;24.09;43.46
39435;BME280;30098;51.880;-0.518;2022-07-22T01:13:52;101230.94;;;24.08;43.49
39435;BME280;30098;51.880;-0.518;2022-07-22T01:16:18;101230.44;;;24.06;43.42
39435;BME280;30098;51.880;-0.518;2022-07-22T01:18:44;101232.53;;;24.09;43.31
39435;BME280;30098;51.880;-0.518;2022-07-22T01:21:10;101228.97;;;24.08;43.49
39435;BME280;30098;51.880;-0.518;2022-07-22T01:23:37;101230.94;;;24.08;43.35
39435;BME280;30098;51.880;-0.518;2022-07-22T01:26:03;101234.81;;;24.07;43.61
39435;BME280;30098;51.880;-0.518;2022-07-22T01:28:29;101226.56;;;24.07;43.55
39435;BME280;30098;51.880;-0.518;2022-07-22T01:30:55;101139.00;;;23.47;43.71
39435;BME280;30098;51.880;-0.518;2022-07-22T01:33:21;101225.75;;;24.06;43.42
39435;BME280;30098;51.880;-0.518;2022-07-22T01:35:49;101229.31;;;24.07;43.39
39435;BME280;30098;51.880;-0.518;2022-07-22T01:38:15;101211.19;;;23.97;43.64
39435;BME280;30098;51.880;-0.518;2022-07-22T01:40:41;101224.94;;;24.06;43.47
39435;BME280;30098;51.880;-0.518;2022-07-22T01:43:07;101217.81;;;24.05;43.55
39435;BME280;30098;51.880;-0.518;2022-07-22T01:45:34;101217.03;;;24.04;43.56
39435;BME280;30098;51.880;-0.518;2022-07-22T01:47:59;101223.31;;;24.05;43.51
39435;BME280;30098;51.880;-0.518;2022-07-22T01:50:25;101222.53;;;24.04;43.41
39435;BME280;30098;51.880;-0.518;2022-07-22T01:52:51;101219.78;;;24.04;43.29
39435;BME280;30098;51.880;-0.518;2022-07-22T01:55:17;101195.47;;;23.89;43.49
39435;BME280;30098;51.880;-0.518;2022-07-22T01:57:43;101233.03;;;24.02;43.43
39435;BME280;30098;51.880;-0.518;2022-07-22T02:00:09;101227.53;;;24.02;43.47
39435;BME280;30098;51.880;-0.518;2022-07-22T02:02:35;101223.97;;;24.02;43.61
39435;BME280;30098;51.880;-0.518;2022-07-22T02:05:02;101228.66;;;24.01;43.53
39435;BME280;30098;51.880;-0.518;2022-07-22T02:07:28;101225.91;;;24.01;43.53
39435;BME280;30098;51.880;-0.518;2022-07-22T02:09:54;101222.38;;;24.01;43.45
39435;BME280;30098;51.880;-0.518;2022-07-22T02:12:19;101197.25;;;23.85;43.47
39435;BME280;30098;51.880;-0.518;2022-07-22T02:14:45;101224.28;;;24.00;43.53
39435;BME280;30098;51.880;-0.518;2022-07-22T02:17:11;101229.78;;;24.00;43.36
39435;BME280;30098;51.880;-0.518;2022-07-22T02:19:37;101218.78;;;23.91;43.46
39435;BME280;30098;51.880;-0.518;2022-07-22T02:22:03;101224.28;;;24.00;43.49
39435;BME280;30098;51.880;-0.518;2022-07-22T02:24:28;101129.66;;;23.40;43.36
39435;BME280;30098;51.880;-0.518;2022-07-22T02:26:54;101131.09;;;23.46;43.54
39435;BME280;30098;51.880;-0.518;2022-07-22T02:29:20;101212.00;;;23.98;43.63
39435;BME280;30098;51.880;-0.518;2022-07-22T02:31:46;101211.19;;;23.97;43.52
39435;BME280;30098;51.880;-0.518;2022-07-22T02:34:11;101197.09;;;23.90;43.40
39435;BME280;30098;51.880;-0.518;2022-07-22T02:36:37;101205.69;;;23.97;43.45
39435;BME280;30098;51.880;-0.518;2022-07-22T02:39:03;101212.34;;;23.96;43.43
39435;BME280;30098;51.880;-0.518;2022-07-22T02:41:29;101220.59;;;23.96;43.60
39435;BME280;30098;51.880;-0.518;2022-07-22T02:43:55;101213.47;;;23.95;43.58
39435;BME280;30098;51.880;-0.518;2022-07-22T02:46:21;101228.00;;;23.95;43.56
39435;BME280;30098;51.880;-0.518;2022-07-22T02:48:47;101229.16;;;23.94;43.50
39435;BME280;30098;51.880;-0.518;2022-07-22T02:51:12;101218.97;;;23.95;43.63
39435;BME280;30098;51.880;-0.518;2022-07-22T02:53:38;101220.91;;;23.94;43.46
39435;BME280;30098;51.880;-0.518;2022-07-22T02:56:03;101231.91;;;23.94;43.30
39435;BME280;30098;51.880;-0.518;2022-07-22T02:58:29;101224.81;;;23.93;43.53
39435;BME280;30098;51.880;-0.518;2022-07-22T03:00:55;101231.41;;;23.92;43.62
39435;BME280;30098;51.880;-0.518;2022-07-22T03:03:20;101230.31;;;23.93;43.67
39435;BME280;30098;51.880;-0.518;2022-07-22T03:05:46;101230.31;;;23.93;43.57
39435;BME280;30098;51.880;-0.518;2022-07-22T03:08:12;101207.94;;;23.77;43.44
39435;BME280;30098;51.880;-0.518;2022-07-22T03:10:37;101227.03;;;23.91;43.72
39435;BME280;30098;51.880;-0.518;2022-07-22T03:13:03;101205.50;;;23.76;43.62
39435;BME280;30098;51.880;-0.518;2022-07-22T03:15:28;101197.91;;;23.73;43.47
39435;BME280;30098;51.880;-0.518;2022-07-22T03:17:54;101225.41;;;23.90;43.65
39435;BME280;30098;51.880;-0.518;2022-07-22T03:20:19;101224.13;;;23.88;43.50
39435;BME280;30098;51.880;-0.518;2022-07-22T03:22:45;101230.13;;;23.90;43.41
39435;BME280;30098;51.880;-0.518;2022-07-22T03:25:10;101234.78;;;23.89;43.63
39435;BME280;30098;51.880;-0.518;2022-07-22T03:27:36;101217.16;;;23.82;43.42
39435;BME280;30098;51.880;-0.518;2022-07-22T03:30:04;101204.84;;;23.70;43.44
39435;BME280;30098;51.880;-0.518;2022-07-22T03:32:29;101240.28;;;23.89;43.46
39435;BME280;30098;51.880;-0.518;2022-07-22T03:34:55;101232.38;;;23.88;43.83
39435;BME280;30098;51.880;-0.518;2022-07-22T03:37:20;101224.13;;;23.88;43.59
39435;BME280;30098;51.880;-0.518;2022-07-22T03:39:46;101229.63;;;23.88;43.67
39435;BME280;30098;51.880;-0.518;2022-07-22T03:42:11;101226.03;;;23.87;43.71
39435;BME280;30098;51.880;-0.518;2022-07-22T03:44:37;101219.75;;;23.87;43.62
39435;BME280;30098;51.880;-0.518;2022-07-22T03:47:02;101209.38;;;23.84;43.42
39435;BME280;30098;51.880;-0.518;2022-07-22T03:49:28;101213.44;;;23.86;43.58
39435;BME280;30098;51.880;-0.518;2022-07-22T03:51:55;101195.63;;;23.75;43.75
39435;BME280;30098;51.880;-0.518;2022-07-22T03:54:20;101203.06;;;23.83;43.67
39435;BME280;30098;51.880;-0.518;2022-07-22T03:56:46;101207.94;;;23.86;43.61
39435;BME280;30098;51.880;-0.518;2022-07-22T03:59:11;101202.75;;;23.85;43.79
39435;BME280;30098;51.880;-0.518;2022-07-22T04:01:37;101200.81;;;23.85;43.60
39435;BME280;30098;51.880;-0.518;2022-07-22T04:04:03;101197.25;;;23.85;43.27
39435;BME280;30098;51.880;-0.518;2022-07-22T04:06:28;101190.13;;;23.84;43.41
39435;BME280;30098;51.880;-0.518;2022-07-22T04:08:54;101187.38;;;23.84;43.65
39435;BME280;30098;51.880;-0.518;2022-07-22T04:11:20;101184.63;;;23.84;43.65
39435;BME280;30098;51.880;-0.518;2022-07-22T04:13:46;101171.66;;;23.75;43.55
39435;BME280;30098;51.880;-0.518;2022-07-22T04:16:12;101182.19;;;23.82;43.29
39435;BME280;30098;51.880;-0.518;2022-07-22T04:18:37;101177.53;;;23.83;43.50
39435;BME280;30098;51.880;-0.518;2022-07-22T04:21:03;101166.03;;;23.81;43.51
39435;BME280;30098;51.880;-0.518;2022-07-22T04:23:28;101166.16;;;23.75;43.63
39435;BME280;30098;51.880;-0.518;2022-07-22T04:25:54;101173.16;;;23.82;43.63
39435;BME280;30098;51.880;-0.518;2022-07-22T04:28:19;101181.41;;;23.82;43.55
39435;BME280;30098;51.880;-0.518;2022-07-22T04:30:45;101177.81;;;23.81;43.55
39435;BME280;30098;51.880;-0.518;2022-07-22T04:33:11;101174.28;;;23.81;43.57
39435;BME280;30098;51.880;-0.518;2022-07-22T04:35:36;101171.53;;;23.81;43.60
39435;BME280;30098;51.880;-0.518;2022-07-22T04:38:02;101163.91;;;23.77;43.48
39435;BME280;30098;51.880;-0.518;2022-07-22T04:40:27;101153.88;;;23.73;43.31
39435;BME280;30098;51.880;-0.518;2022-07-22T04:42:53;101074.66;;;23.22;43.33
39435;BME280;30098;51.880;-0.518;2022-07-22T04:45:18;101158.09;;;23.79;43.58
39435;BME280;30098;51.880;-0.518;2022-07-22T04:47:44;101173.00;;;23.78;43.54
39435;BME280;30098;51.880;-0.518;2022-07-22T04:50:10;101160.50;;;23.72;43.63
39435;BME280;30098;51.880;-0.518;2022-07-22T04:52:35;101166.34;;;23.79;43.39
39435;BME280;30098;51.880;-0.518;2022-07-22T04:55:00;101162.78;;;23.78;43.53
39435;BME280;30098;51.880;-0.518;2022-07-22T04:57:26;101148.22;;;23.69;43.63
39435;BME280;30098;51.880;-0.518;2022-07-22T04:59:53;101160.38;;;23.77;43.57
39435;BME280;30098;51.880;-0.518;2022-07-22T05:02:19;101160.38;;;23.77;43.57
39435;BME280;30098;51.880;-0.518;2022-07-22T05:04:44;101163.91;;;23.77;43.42
39435;BME280;30098;51.880;-0.518;2022-07-22T05:07:10;101162.28;;;23.76;43.72
39435;BME280;30098;51.880;-0.518;2022-07-22T05:09:35;101157.63;;;23.77;43.38
39435;BME280;30098;51.880;-0.518;2022-07-22T05:12:01;101149.19;;;23.73;43.49
39435;BME280;30098;51.880;-0.518;2022-07-22T05:14:26;101152.41;;;23.75;43.38
39435;BME280;30098;51.880;-0.518;2022-07-22T05:16:52;101056.03;;;23.10;43.34
39435;BME280;30098;51.880;-0.518;2022-07-22T05:19:17;101166.16;;;23.75;43.38
39435;BME280;30098;51.880;-0.518;2022-07-22T05:21:43;101154.38;;;23.75;43.35
39435;BME280;30098;51.880;-0.518;2022-07-22T05:24:08;101150.00;;;23.74;43.42
39435;BME280;30098;51.880;-0.518;2022-07-22T05:26:34;101152.75;;;23.74;43.68
39435;BME280;30098;51.880;-0.518;2022-07-22T05:29:00;101164.59;;;23.74;43.51
39435;BME280;30098;51.880;-0.518;2022-07-22T05:31:25;101166.50;;;23.74;43.54
39435;BME280;30098;51.880;-0.518;2022-07-22T05:33:51;101164.88;;;23.73;43.51
39435;BME280;30098;51.880;-0.518;2022-07-22T05:36:17;101165.72;;;23.73;43.45
39435;BME280;30098;51.880;-0.518;2022-07-22T05:38:42;101175.09;;;23.72;43.52
39435;BME280;30098;51.880;-0.518;2022-07-22T05:41:08;101175.09;;;23.72;43.37
39435;BME280;30098;51.880;-0.518;2022-07-22T05:43:34;101170.38;;;23.73;43.47
39435;BME280;30098;51.880;-0.518;2022-07-22T05:45:59;101175.09;;;23.72;43.47
39435;BME280;30098;51.880;-0.518;2022-07-22T05:48:25;101176.22;;;23.71;43.37
39435;BME280;30098;51.880;-0.518;2022-07-22T05:50:50;101176.22;;;23.71;43.14
39435;BME280;30098;51.880;-0.518;2022-07-22T05:53:16;101178.97;;;23.71;43.46
39435;BME280;30098;51.880;-0.518;2022-07-22T05:55:41;101070.56;;;23.02;43.35
39435;BME280;30098;51.880;-0.518;2022-07-22T05:58:07;101184.47;;;23.71;43.33
39435;BME280;30098;51.880;-0.518;2022-07-22T06:00:32;101191.94;;;23.71;43.38
39435;BME280;30098;51.880;-0.518;2022-07-22T06:02:58;101186.44;;;23.71;43.54
39435;BME280;30098;51.880;-0.518;2022-07-22T06:05:23;101181.91;;;23.66;43.62
39435;BME280;30098;51.880;-0.518;2022-07-22T06:07:49;101162.47;;;23.54;43.55
39435;BME280;30098;51.880;-0.518;2022-07-22T06:10:14;101189.47;;;23.69;43.37
39435;BME280;30098;51.880;-0.518;2022-07-22T06:12:40;101186.72;;;23.69;43.64
39435;BME280;30098;51.880;-0.518;2022-07-22T06:15:06;101158.13;;;23.53;43.44
39435;BME280;30098;51.880;-0.518;2022-07-22T06:17:31;101186.72;;;23.69;43.69
39435;BME280;30098;51.880;-0.518;2022-07-22T06:19:57;101185.09;;;23.68;43.37
39435;BME280;30098;51.880;-0.518;2022-07-22T06:22:23;101174.78;;;23.65;43.52
39435;BME280;30098;51.880;-0.518;2022-07-22T06:24:48;101170.56;;;23.68;43.68
39435;BME280;30098;51.880;-0.518;2022-07-22T06:27:14;101171.34;;;23.68;43.49
39435;BME280;30098;51.880;-0.518;2022-07-22T06:29:39;101167.00;;;23.67;43.63
39435;BME280;30098;51.880;-0.518;2022-07-22T06:32:07;101163.44;;;23.67;43.33
39435;BME280;30098;51.880;-0.518;2022-07-22T06:34:32;101080.47;;;23.12;43.36
39435;BME280;30098;51.880;-0.518;2022-07-22T06:36:58;101163.44;;;23.67;43.34
39435;BME280;30098;51.880;-0.518;2022-07-22T06:39:24;101135.63;;;23.51;43.39
39435;BME280;30098;51.880;-0.518;2022-07-22T06:41:49;101132.88;;;23.51;43.52
39435;BME280;30098;51.880;-0.518;2022-07-22T06:44:15;101153.56;;;23.66;43.52
39435;BME280;30098;51.880;-0.518;2022-07-22T06:46:40;101063.47;;;23.10;43.50
39435;BME280;30098;51.880;-0.518;2022-07-22T06:49:06;101152.78;;;23.65;43.44
39435;BME280;30098;51.880;-0.518;2022-07-22T06:51:32;101132.38;;;23.48;43.59
39435;BME280;30098;51.880;-0.518;2022-07-22T06:53:59;101054.09;;;23.02;43.53
39435;BME280;30098;51.880;-0.518;2022-07-22T06:56:24;101155.53;;;23.65;43.44
39435;BME280;30098;51.880;-0.518;2022-07-22T06:58:50;101140.47;;;23.54;43.41
39435;BME280;30098;51.880;-0.518;2022-07-22T07:01:15;101156.66;;;23.64;43.33
39435;BME280;30098;51.880;-0.518;2022-07-22T07:03:41;101076.41;;;23.09;43.47
39435;BME280;30098;51.880;-0.518;2022-07-22T07:06:08;101151.16;;;23.55;43.68
39435;BME280;30098;51.880;-0.518;2022-07-22T07:08:36;101154.69;;;23.64;43.66
39435;BME280;30098;51.880;-0.518;2022-07-22T07:11:02;101154.38;;;23.66;43.62
39435;BME280;30098;51.880;-0.518;2022-07-22T07:13:27;101140.31;;;23.59;43.65
39435;BME280;30098;51.880;-0.518;2022-07-22T07:15:53;101150.19;;;23.69;43.52
39435;BME280;30098;51.880;-0.518;2022-07-22T07:18:18;101151.47;;;23.71;43.57
39435;BME280;30098;51.880;-0.518;2022-07-22T07:20:44;101147.59;;;23.72;43.39
39435;BME280;30098;51.880;-0.518;2022-07-22T07:23:09;101139.19;;;23.69;43.31
39435;BME280;30098;51.880;-0.518;2022-07-22T07:25:35;101099.88;;;23.51;43.40
39435;BME280;30098;51.880;-0.518;2022-07-22T07:28:01;101145.47;;;23.78;43.34
39435;BME280;30098;51.880;-0.518;2022-07-22T07:30:26;101151.44;;;23.80;43.41
39435;BME280;30098;51.880;-0.518;2022-07-22T07:32:52;101138.03;;;23.78;43.42
39435;BME280;30098;51.880;-0.518;2022-07-22T07:35:17;101139.81;;;23.83;43.28
39435;BME280;30098;51.880;-0.518;2022-07-22T07:37:43;101138.66;;;23.84;43.20
39435;BME280;30098;51.880;-0.518;2022-07-22T07:40:09;101119.59;;;23.70;43.06
39435;BME280;30098;51.880;-0.518;2022-07-22T07:42:35;101143.50;;;23.87;43.25
39435;BME280;30098;51.880;-0.518;2022-07-22T07:45:00;101137.69;;;23.89;43.06
39435;BME280;30098;51.880;-0.518;2022-07-22T07:47:26;101150.31;;;23.90;43.06
39435;BME280;30098;51.880;-0.518;2022-07-22T07:49:52;101131.06;;;23.81;43.06
39435;BME280;30098;51.880;-0.518;2022-07-22T07:52:18;101132.03;;;23.85;43.25
39435;BME280;30098;51.880;-0.518;2022-07-22T07:54:44;101144.19;;;23.93;43.15
39435;BME280;30098;51.880;-0.518;2022-07-22T07:57:11;101060.09;;;23.39;43.17
39435;BME280;30098;51.880;-0.518;2022-07-22T07:59:37;101127.00;;;23.87;43.13
39435;BME280;30098;51.880;-0.518;2022-07-22T08:02:03;101145.94;;;23.98;42.90
39435;BME280;30098;51.880;-0.518;2022-07-22T08:04:30;101129.44;;;23.89;42.66
39435;BME280;30098;51.880;-0.518;2022-07-22T08:06:56;101143.69;;;24.00;42.90
39435;BME280;30098;51.880;-0.518;2022-07-22T08:09:23;101140.28;;;23.94;43.16
39435;BME280;30098;51.880;-0.518;2022-07-22T08:11:48;101146.09;;;24.01;42.98
39435;BME280;30098;51.880;-0.518;2022-07-22T08:14:14;101147.38;;;24.04;43.09
39435;BME280;30098;51.880;-0.518;2022-07-22T08:16:40;101145.47;;;24.04;42.83
39435;BME280;30098;51.880;-0.518;2022-07-22T08:19:05;101154.50;;;24.05;42.85
39435;BME280;30098;51.880;-0.518;2022-07-22T08:21:31;101148.66;;;24.06;42.76
39435;BME280;30098;51.880;-0.518;2022-07-22T08:23:57;101148.38;;;24.08;43.18
39435;BME280;30098;51.880;-0.518;2022-07-22T08:26:22;101148.22;;;24.04;42.82
39435;BME280;30098;51.880;-0.518;2022-07-22T08:28:48;101156.63;;;24.08;42.78
39435;BME280;30098;51.880;-0.518;2022-07-22T08:31:13;101155.00;;;24.07;43.39
39435;BME280;30098;51.880;-0.518;2022-07-22T08:33:39;101147.19;;;24.09;43.33
39435;BME280;30098;51.880;-0.518;2022-07-22T08:36:05;101145.63;;;24.08;43.38
39435;BME280;30098;51.880;-0.518;2022-07-22T08:38:31;101143.81;;;24.12;43.80
39435;BME280;30098;51.880;-0.518;2022-07-22T08:40:57;101111.66;;;23.95;43.88
39435;BME280;30098;51.880;-0.518;2022-07-22T08:43:24;101124.19;;;24.14;43.61
39435;BME280;30098;51.880;-0.518;2022-07-22T08:45:50;101129.06;;;24.17;43.74
39435;BME280;30098;51.880;-0.518;2022-07-22T08:48:16;101129.84;;;24.17;43.73
39435;BME280;30098;51.880;-0.518;2022-07-22T08:50:42;101138.25;;;24.21;44.10
39435;BME280;30098;51.880;-0.518;2022-07-22T08:53:09;101134.88;;;24.24;43.57
39435;BME280;30098;51.880;-0.518;2022-07-22T08:55:46;101139.25;;;24.25;43.31
39435;BME280;30098;51.880;-0.518;2022-07-22T08:58:12;101127.56;;;24.28;43.04
39435;BME280;30098;51.880;-0.518;2022-07-22T09:00:39;101117.06;;;24.21;42.66
39435;BME280;30098;51.880;-0.518;2022-07-22T09:03:21;101131.28;;;24.32;42.67
39435;BME280;30098;51.880;-0.518;2022-07-22T09:05:48;101057.41;;;23.87;42.53
39435;BME280;30098;51.880;-0.518;2022-07-22T09:08:14;101089.69;;;24.16;42.20
39435;BME280;30098;51.880;-0.518;2022-07-22T09:10:40;101089.69;;;24.25;42.16
39435;BME280;30098;51.880;-0.518;2022-07-22T09:13:07;101108.72;;;24.39;41.79
39435;BME280;30098;51.880;-0.518;2022-07-22T09:15:35;101106.94;;;24.43;41.90
39435;BME280;30098;51.880;-0.518;2022-07-22T09:18:01;101081.38;;;24.34;41.84
39435;BME280;30098;51.880;-0.518;2022-07-22T09:20:29;101091.06;;;24.40;41.96
39435;BME280;30098;51.880;-0.518;2022-07-22T09:22:54;101092.69;;;24.41;41.78
39435;BME280;30098;51.880;-0.518;2022-07-22T09:25:22;101104.81;;;24.49;41.63
39435;BME280;30098;51.880;-0.518;2022-07-22T09:27:49;101107.22;;;24.50;40.83
39435;BME280;30098;51.880;-0.518;2022-07-22T09:30:26;101100.09;;;24.49;41.77
39435;BME280;30098;51.880;-0.518;2022-07-22T09:32:53;101105.09;;;24.56;41.52
39435;BME280;30098;51.880;-0.518;2022-07-22T09:35:22;101107.16;;;24.59;41.24
39435;BME280;30098;51.880;-0.518;2022-07-22T09:37:53;101105.69;;;24.62;41.46
39435;BME280;30098;51.880;-0.518;2022-07-22T09:40:25;101097.56;;;24.65;41.12
39435;BME280;30098;51.880;-0.518;2022-07-22T09:42:53;101018.31;;;24.11;40.94
39435;BME280;30098;51.880;-0.518;2022-07-22T09:45:20;101108.44;;;24.70;40.91
39435;BME280;30098;51.880;-0.518;2022-07-22T09:47:46;101099.50;;;24.73;40.96
39435;BME280;30098;51.880;-0.518;2022-07-22T09:52:48;101107.69;;;24.82;41.00
39435;BME280;30098;51.880;-0.518;2022-07-22T09:55:16;101101.53;;;24.85;40.36
39435;BME280;30098;51.880;-0.518;2022-07-22T09:57:43;101090.66;;;24.89;40.09
39435;BME280;30098;51.880;-0.518;2022-07-22T10:00:09;101068.06;;;24.74;40.36
39435;BME280;30098;51.880;-0.518;2022-07-22T10:05:11;101093.69;;;24.96;40.74
39435;BME280;30098;51.880;-0.518;2022-07-22T10:07:40;101095.91;;;25.03;40.53
39435;BME280;30098;51.880;-0.518;2022-07-22T10:10:06;101095.56;;;25.04;40.19
39435;BME280;30098;51.880;-0.518;2022-07-22T10:12:33;101089.03;;;25.09;39.45
39435;BME280;30098;51.880;-0.518;2022-07-22T10:15:00;101077.31;;;25.12;39.50
39435;BME280;30098;51.880;-0.518;2022-07-22T10:17:26;101079.69;;;25.01;39.38
39435;BME280;30098;51.880;-0.518;2022-07-22T10:19:52;101083.78;;;25.16;39.47
39435;BME280;30098;51.880;-0.518;2022-07-22T10:25:07;101088.31;;;25.21;39.17
39435;BME280;30098;51.880;-0.518;2022-07-22T10:27:57;101002.13;;;24.69;39.12
39435;BME280;30098;51.880;-0.518;2022-07-22T10:30:34;101070.94;;;25.20;39.17
39435;BME280;30098;51.880;-0.518;2022-07-22T10:33:12;101076.03;;;25.31;39.17
39435;BME280;30098;51.880;-0.518;2022-07-22T10:35:54;101068.56;;;25.31;38.68
39435;BME280;30098;51.880;-0.518;2022-07-22T10:38:20;101001.66;;;24.88;39.27
39435;BME280;30098;51.880;-0.518;2022-07-22T10:40:48;101083.13;;;25.41;39.23
39435;BME280;30098;51.880;-0.518;2022-07-22T10:43:19;101089.56;;;25.45;38.79
39435;BME280;30098;51.880;-0.518;2022-07-22T11:01:43;101051.94;;;25.61;37.90
39435;BME280;30098;51.880;-0.518;2022-07-22T11:04:11;101047.78;;;25.55;38.02
39435;BME280;30098;51.880;-0.518;2022-07-22T11:06:38;101037.66;;;25.59;37.81
39435;BME280;30098;51.880;-0.518;2022-07-22T11:09:06;101044.78;;;25.60;38.00
39435;BME280;30098;51.880;-0.518;2022-07-22T11:14:28;101032.97;;;25.60;37.25
39435;BME280;30098;51.880;-0.518;2022-07-22T11:17:15;101042.50;;;25.62;36.92
39435;BME280;30098;51.880;-0.518;2022-07-22T11:19:41;100984.81;;;25.36;37.45
39435;BME280;30098;51.880;-0.518;2022-07-22T11:22:08;101018.47;;;25.63;37.06
39435;BME280;30098;51.880;-0.518;2022-07-22T11:24:35;100956.97;;;25.16;37.25
39435;BME280;30098;51.880;-0.518;2022-07-22T11:27:03;101035.13;;;25.66;37.18
39435;BME280;30098;51.880;-0.518;2022-07-22T11:29:31;101037.91;;;25.66;37.15
39435;BME280;30098;51.880;-0.518;2022-07-22T11:31:59;101034.00;;;25.67;36.74
39435;BME280;30098;51.880;-0.518;2022-07-22T11:34:26;101035.13;;;25.66;36.70
39435;BME280;30098;51.880;-0.518;2022-07-22T11:36:54;101047.78;;;25.67;36.76
39435;BME280;30098;51.880;-0.518;2022-07-22T11:39:22;101039.50;;;25.67;36.41
39435;BME280;30098;51.880;-0.518;2022-07-22T11:41:49;101029.31;;;25.68;36.29
39435;BME280;30098;51.880;-0.518;2022-07-22T11:44:23;101034.47;;;25.69;36.18
39435;BME280;30098;51.880;-0.518;2022-07-22T11:46:49;101031.03;;;25.73;36.66
39435;BME280;30098;51.880;-0.518;2022-07-22T11:49:20;101024.69;;;25.72;36.29
39435;BME280;30098;51.880;-0.518;2022-07-22T11:51:46;101020.00;;;25.73;36.34
39435;BME280;30098;51.880;-0.518;2022-07-22T11:54:12;101011.72;;;25.73;36.67
39435;BME280;30098;51.880;-0.518;2022-07-22T11:56:38;101005.38;;;25.72;36.66
39435;BME280;30098;51.880;-0.518;2022-07-22T11:59:05;100987.44;;;25.53;36.48
39435;BME280;30098;51.880;-0.518;2022-07-22T12:01:33;101002.50;;;25.68;36.63
39435;BME280;30098;51.880;-0.518;2022-07-22T12:04:02;101009.63;;;25.69;36.73
39435;BME280;30098;51.880;-0.518;2022-07-22T12:06:28;101005.25;;;25.68;36.37
39435;BME280;30098;51.880;-0.518;2022-07-22T12:09:02;101003.31;;;25.69;36.39
39435;BME280;30098;51.880;-0.518;2022-07-22T12:11:28;100989.28;;;25.62;36.55
39435;BME280;30098;51.880;-0.518;2022-07-22T12:13:55;101003.88;;;25.75;36.33
39435;BME280;30098;51.880;-0.518;2022-07-22T12:16:26;100981.34;;;25.60;36.48
39435;BME280;30098;51.880;-0.518;2022-07-22T12:21:28;101007.47;;;25.75;36.86
39435;BME280;30098;51.880;-0.518;2022-07-22T12:24:01;101011.03;;;25.76;36.92
39435;BME280;30098;51.880;-0.518;2022-07-22T12:29:26;101010.34;;;25.79;36.30
39435;BME280;30098;51.880;-0.518;2022-07-22T12:31:58;101005.63;;;25.79;36.58
39435;BME280;30098;51.880;-0.518;2022-07-22T12:34:55;101000.44;;;25.78;36.11
39435;BME280;30098;51.880;-0.518;2022-07-22T12:37:26;100988.81;;;25.72;36.23
39435;BME280;30098;51.880;-0.518;2022-07-22T12:42:41;101005.63;;;25.79;35.66
39435;BME280;30098;51.880;-0.518;2022-07-22T12:45:18;100998.16;;;25.80;35.90
39435;BME280;30098;51.880;-0.518;2022-07-22T12:48:04;100914.03;;;25.28;35.70
39435;BME280;30098;51.880;-0.518;2022-07-22T12:53:09;100985.50;;;25.79;35.96
39435;BME280;30098;51.880;-0.518;2022-07-22T12:55:37;101003.69;;;25.80;35.45
39435;BME280;30098;51.880;-0.518;2022-07-22T12:58:04;100992.66;;;25.80;35.69
39435;BME280;30098;51.880;-0.518;2022-07-22T13:00:32;100987.13;;;25.80;35.89
39435;BME280;30098;51.880;-0.518;2022-07-22T13:02:58;100973.19;;;25.64;35.83
39435;BME280;30098;51.880;-0.518;2022-07-22T13:05:25;101004.94;;;25.82;35.63
39435;BME280;30098;51.880;-0.518;2022-07-22T13:07:51;100993.91;;;25.82;35.86
39435;BME280;30098;51.880;-0.518;2022-07-22T13:10:19;101001.03;;;25.83;35.77
39435;BME280;30098;51.880;-0.518;2022-07-22T13:12:45;101004.59;;;25.84;35.40
39435;BME280;30098;51.880;-0.518;2022-07-22T13:15:11;100985.41;;;25.75;35.59